Flight Track Log - Related Links

Times and Time Zones

All times are in EDT time to prevent confusion due to time zone crossing. See the N802SL flight status page for this flight to view local times or setup timezone preferences in your user account.

Time Position Orientation Groundspeed Altitude Reporting Facility
EDT Latitude Longitude Course Direction KTS MPH feet Rate Location/Type
Mon 06:46:45 AM 39.9833 -75.5667 101° East 96 110 1,200  Level Philadelphia TRACON
Mon 06:47:21 AM 39.9667 -75.5667 180° South 158 182 2,300 1,800 Climbing Philadelphia TRACON
Mon 06:48:15 AM 39.9500 -75.6167 247° West 171 197 3,900 1,850 Climbing Philadelphia TRACON
Mon 06:49:21 AM 39.9333 -75.6333 217° Southwest 132 152 6,000 1,762 Climbing Philadelphia TRACON
Mon 06:50:21 AM 39.9000 -75.6000 143° Southeast 160 184 7,600 1,304 Climbing Philadelphia TRACON
Mon 06:51:39 AM 39.8667 -75.5333 123° Southeast 192 221 9,000 667 Climbing Philadelphia TRACON
Mon 06:52:00 AM 39.8871 -75.1263 101° East  Level FlightAware Approximate
Mon 06:52:27 AM 39.8667 -75.4667 90° East 201 231 9,000  Level Philadelphia TRACON
Mon 06:53:27 AM 39.8500 -75.4000 108° East 196 226 9,000  Level Philadelphia TRACON
Mon 06:54:27 AM 39.8500 -75.3333 90° East 195 224 9,000  Level Philadelphia TRACON
Mon 06:55:27 AM 39.8500 -75.2667 90° East 199 229 9,000  Level Philadelphia TRACON
Mon 06:56:27 AM 39.8333 -75.1833 105° East 198 228 9,000  Level Philadelphia TRACON
Mon 06:58:53 AM 39.8219 -75.0306 95° East 200 230 9,000  Level New York Center
Mon 06:59:54 AM 39.8144 -74.9517 97° East 200 230 9,000  Level New York Center
Mon 07:00:54 AM 39.8083 -74.8839 97° East 200 230 9,000  Level New York Center
Mon 07:01:55 AM 39.8028 -74.8050 95° East 200 230 9,000 744 Level New York Center
Mon 07:02:55 AM 39.7967 -74.7400 97° East 195 224 10,500 1,627 Climbing New York Center
Mon 07:03:53 AM 39.7969 -74.6697 90° East 195 224 12,200 1,664 Climbing New York Center
Mon 07:04:54 AM 39.8033 -74.6050 83° East 183 211 13,800 1,574 Climbing New York Center
Mon 07:05:55 AM 39.8117 -74.5408 80° East 177 204 15,400 1,563 Climbing New York Center
Mon 07:06:53 AM 39.8156 -74.4761 86° East 177 204 16,900 1,400 Climbing New York Center
Mon 07:07:55 AM 39.8300 -74.4147 73° East 177 204 18,200 1,206 Climbing New York Center
Mon 07:10:02 AM 39.8969 -74.3006 53° Northeast 182 209 20,700 1,123 Climbing Boston Center
Mon 07:11:02 AM 39.9269 -74.2392 57° Northeast 192 221 21,700 1,000 Climbing Boston Center
Mon 07:12:02 AM 39.9592 -74.1833 53° Northeast 192 221 22,700 650 Climbing Boston Center
Mon 07:13:02 AM 39.9914 -74.1192 57° Northeast 192 221 23,000 600 Climbing Boston Center
Mon 07:14:02 AM 40.0236 -74.0550 57° Northeast 199 229 23,900 950 Climbing Boston Center
Mon 07:15:02 AM 40.0558 -73.9933 56° Northeast 199 229 24,900 500 Climbing Boston Center
Mon 07:16:02 AM 40.0900 -73.9317 54° Northeast 199 229 24,900  Level Boston Center
Mon 07:17:02 AM 40.1344 -73.8731 45° Northeast 211 243 24,900 50 Level Boston Center
Mon 07:18:02 AM 40.1811 -73.8117 45° Northeast 226 260 25,000 50 Climbing Boston Center
Mon 07:19:02 AM 40.2294 -73.7583 40° Northeast 226 260 25,000  Level Boston Center
Mon 07:20:02 AM 40.2739 -73.6967 47° Northeast 226 260 25,000  Level Boston Center
Mon 07:21:02 AM 40.3164 -73.6294 50° Northeast 226 260 25,000  Level Boston Center
Mon 07:22:02 AM 40.3608 -73.5703 45° Northeast 226 260 25,000  Level Boston Center
Mon 07:23:02 AM 40.4072 -73.5111 44° Northeast 226 260 25,000  Level Boston Center
Mon 07:24:02 AM 40.4517 -73.4492 47° Northeast 226 260 25,000  Level Boston Center
Mon 07:25:02 AM 40.5000 -73.3897 43° Northeast 226 260 25,000  Level Boston Center
Mon 07:26:02 AM 40.5483 -73.3331 42° Northeast 226 260 25,000  Level Boston Center
Mon 07:27:02 AM 40.5989 -73.2764 40° Northeast 226 260 25,000  Level Boston Center
Mon 07:28:02 AM 40.6450 -73.2169 44° Northeast 231 266 25,000  Level Boston Center
Mon 07:29:02 AM 40.6975 -73.1628 38° Northeast 231 266 25,000  Level Boston Center
Mon 07:30:02 AM 40.7458 -73.1086 40° Northeast 231 266 25,000  Level Boston Center
Mon 07:31:02 AM 40.7961 -73.0486 42° Northeast 231 266 25,000  Level Boston Center
Mon 07:32:02 AM 40.8422 -72.9942 42° Northeast 236 272 25,000  Level Boston Center
Mon 07:33:02 AM 40.8925 -72.9317 43° Northeast 236 272 25,000  Level Boston Center
Mon 07:34:02 AM 40.9428 -72.8769 39° Northeast 236 272 25,000  Level Boston Center
Mon 07:35:02 AM 40.9908 -72.8169 43° Northeast 236 272 25,000  Level Boston Center
Mon 07:36:02 AM 41.0392 -72.7592 42° Northeast 236 272 25,000  Level Boston Center
Mon 07:37:02 AM 41.0892 -72.7017 41° Northeast 236 272 25,000  Level Boston Center
Mon 07:38:02 AM 41.1372 -72.6442 42° Northeast 236 272 25,000  Level Boston Center
Mon 07:39:02 AM 41.1875 -72.5836 42° Northeast 236 272 25,000  Level Boston Center
Mon 07:40:02 AM 41.2353 -72.5228 44° Northeast 236 272 25,000  Level Boston Center
Mon 07:41:02 AM 41.2814 -72.4650 43° Northeast 236 272 25,000  Level Boston Center
Mon 07:42:02 AM 41.3208 -72.4181 42° Northeast 236 272 25,000  Level Boston Center
Mon 07:43:02 AM 41.3811 -72.3433 43° Northeast 236 272 25,000  Level Boston Center
Mon 07:44:02 AM 41.4292 -72.2850 42° Northeast 236 272 25,000  Level Boston Center
Mon 07:45:02 AM 41.4833 -72.2239 40° Northeast 236 272 25,000  Level Boston Center
Mon 07:46:02 AM 41.5331 -72.1656 41° Northeast 236 272 25,000  Level Boston Center
Mon 07:47:02 AM 41.5831 -72.1014 44° Northeast 236 272 25,000  Level Boston Center
Mon 07:48:02 AM 41.6328 -72.0400 43° Northeast 236 272 25,000  Level Boston Center
Mon 07:49:02 AM 41.6847 -71.9786 41° Northeast 236 272 25,000  Level Boston Center
Mon 07:51:02 AM 41.7842 -71.8556 43° Northeast 236 272 25,000  Level Boston Center
Mon 07:52:02 AM 41.8358 -71.7936 42° Northeast 236 272 25,000  Level Boston Center
Mon 07:53:02 AM 41.8856 -71.7289 44° Northeast 236 272 25,000  Level Boston Center
Mon 07:55:02 AM 41.9867 -71.6050 42° Northeast 236 272 25,000  Level Boston Center
Mon 07:56:02 AM 42.0425 -71.5456 38° Northeast 236 272 25,000  Level Boston Center
Mon 07:57:02 AM 42.0919 -71.4806 44° Northeast 236 272 25,000  Level Boston Center
Mon 07:58:02 AM 42.1436 -71.4153 43° Northeast 236 272 25,000  Level Boston Center
Mon 07:59:02 AM 42.1950 -71.3528 42° Northeast 236 272 25,000  Level Boston Center
Mon 08:00:02 AM 42.2444 -71.2903 43° Northeast 236 272 25,000  Level Boston Center
Mon 08:01:02 AM 42.2981 -71.2247 42° Northeast 236 272 25,000  Level Boston Center
Mon 08:02:02 AM 42.3472 -71.1619 43° Northeast 241 277 25,000  Level Boston Center
Mon 08:03:02 AM 42.3986 -71.0961 43° Northeast 241 277 25,000  Level Boston Center
Mon 08:04:02 AM 42.4500 -71.0303 43° Northeast 241 277 25,000  Level Boston Center
Mon 08:05:02 AM 42.5033 -70.9644 42° Northeast 241 277 25,000  Level Boston Center
Mon 08:06:02 AM 42.5547 -70.8983 43° Northeast 241 277 25,000  Level Boston Center
Mon 08:07:02 AM 42.6036 -70.8322 45° Northeast 241 277 25,000  Level Boston Center
Mon 08:08:02 AM 42.6550 -70.7689 42° Northeast 241 277 25,000  Level Boston Center
Mon 08:09:02 AM 42.7061 -70.7025 44° Northeast 241 277 25,000  Level Boston Center
Mon 08:10:02 AM 42.7550 -70.6361 45° Northeast 241 277 25,000  Level Boston Center
Mon 08:11:02 AM 42.8061 -70.5694 44° Northeast 241 277 25,000  Level Boston Center
Mon 08:13:02 AM 42.9081 -70.4389 43° Northeast 241 277 25,000  Level Boston Center
Mon 08:14:02 AM 42.9489 -70.3864 43° Northeast 241 277 25,000 -150 Level Boston Center
Mon 08:15:02 AM 43.0036 -70.3108 45° Northeast 241 277 24,700 -350 Descending Boston Center
Mon 08:16:02 AM 43.0586 -70.2464 41° Northeast 241 277 24,300 -400 Descending Boston Center
Mon 08:17:02 AM 43.1094 -70.1706 47° Northeast 246 283 23,900 -450 Descending Boston Center
Mon 08:18:02 AM 43.1642 -70.1003 43° Northeast 256 295 23,400 -450 Descending Boston Center
Mon 08:19:02 AM 43.2147 -70.0297 45° Northeast 256 295 23,000 -450 Descending Boston Center
Mon 08:20:02 AM 43.2675 -69.9622 43° Northeast 256 295 22,500 -450 Descending Boston Center
Mon 08:21:02 AM 43.3264 -69.8883 42° Northeast 256 295 22,100 -433 Descending Boston Center
Mon 08:23:02 AM 43.4317 -69.7494 44° Northeast 261 300 21,200 -450 Descending Boston Center
Mon 08:25:02 AM 43.5325 -69.6133 44° Northeast 261 300 20,300 -433 Descending Boston Center
Mon 08:26:02 AM 43.5831 -69.5450 44° Northeast 256 295 19,900 -450 Descending Boston Center
Mon 08:27:02 AM 43.6333 -69.4767 45° Northeast 256 295 19,400 -450 Descending Boston Center
Mon 08:28:02 AM 43.6836 -69.4111 43° Northeast 251 289 19,000 -400 Descending Boston Center
Mon 08:29:02 AM 43.7281 -69.3514 44° Northeast 245 282 18,600 -400 Descending Boston Center
Mon 08:31:02 AM 43.8325 -69.2106 44° Northeast 240 276 17,800 -433 Descending Boston Center
Mon 08:32:02 AM 43.8786 -69.1506 43° Northeast 240 276 17,300 -650 Descending Boston Center
Mon 08:33:02 AM 43.9247 -69.0844 46° Northeast 235 270 16,500 -1,100 Descending Boston Center
Mon 08:34:02 AM 43.9728 -69.0211 43° Northeast 235 270 15,100 -1,450 Descending Boston Center
Mon 08:35:02 AM 44.0189 -68.9581 45° Northeast 235 270 13,600 -1,367 Descending Boston Center
Mon 08:37:02 AM 44.1072 -68.8428 43° Northeast 235 270 11,000 -1,300 Descending Boston Center
Mon 08:39:00 AM 44.1778 -68.7083 47° Northeast  Level FlightAware Approximate
Mon 08:46:00 AM 44.4333 -68.3500 50° Northeast  Level FlightAware Approximate
Mon 08:47:00 AM 44.4498 -68.3616 50° Northeast  Level Estimated
Mon 08:48:00 AM 44.4498 -68.3616 50° Northeast  Level Estimated
Mon 08:49:00 AM 44.4498 -68.3616 50° Northeast  Level Estimated
Mon 08:50:00 AM 44.4498 -68.3616 50° Northeast  Level Estimated
Mon 08:51:00 AM 44.4498 -68.3616 50° Northeast  Level Estimated
Mon 08:52:00 AM 44.4498 -68.3616 50° Northeast  Level Estimated
Mon 08:53:00 AM 44.4498 -68.3616 50° Northeast  Level Estimated
Mon 08:54:00 AM 44.4498 -68.3616 50° Northeast  Level Estimated

Login

Don't have an account? Register now (free) for customized features, flight alerts, and more!